Time;durP1;ratioP1;P1;durP2;ratioP2;P2;SDS_P1;SDS_P2;PMS_P1;PMS_P2;Temp;Humidity;BMP_temperature;BMP_pressure;BME280_temperature;BME280_humidity;BME280_pressure;Samples;Min_cycle;Max_cycle;Signal;HPM_P1;HPM_P2
2022/06/16 00:00:29;;;;;;;4.93;3.58;;;21.90;86.30;;;;;;5076782;28;20028;-63
2022/06/16 00:02:55;;;;;;;4.60;3.40;;;21.80;86.20;;;;;;5076595;28;20047;-63
2022/06/16 00:05:28;;;;;;;5.32;4.07;;;21.80;86.40;;;;;;5095036;28;20020;-63
2022/06/16 00:07:54;;;;;;;5.50;3.83;;;21.80;86.40;;;;;;5095116;28;20051;-63
2022/06/16 00:10:21;;;;;;;8.52;3.45;;;21.80;86.90;;;;;;5095208;28;20057;-63
2022/06/16 00:12:47;;;;;;;5.22;3.55;;;21.80;86.80;;;;;;5094335;28;20435;-63
2022/06/16 00:15:16;;;;;;;3.83;3.42;;;21.80;87.30;;;;;;5095217;28;20078;-63
2022/06/16 00:17:42;;;;;;;4.43;3.35;;;21.70;87.20;;;;;;5094516;28;20028;-63
2022/06/16 00:20:08;;;;;;;6.05;3.10;;;21.70;87.60;;;;;;5093995;28;20039;-64
2022/06/16 00:22:36;;;;;;;4.60;3.20;;;21.80;87.70;;;;;;5092281;28;20032;-62
2022/06/16 00:25:02;;;;;;;3.53;3.00;;;21.80;87.50;;;;;;5092076;28;20048;-62
2022/06/16 00:27:27;;;;;;;4.63;3.65;;;21.70;87.70;;;;;;5092101;28;20050;-62
2022/06/16 00:29:53;;;;;;;5.93;4.75;;;21.60;87.90;;;;;;5092258;28;20036;-63
2022/06/16 00:32:19;;;;;;;6.68;4.43;;;21.50;88.60;;;;;;5092029;28;20465;-63
2022/06/16 00:34:45;;;;;;;4.45;3.45;;;21.50;88.50;;;;;;5092299;28;20024;-63
2022/06/16 00:37:10;;;;;;;5.25;3.60;;;21.40;89.10;;;;;;5093512;28;20024;-63
2022/06/16 00:39:36;;;;;;;4.90;3.22;;;21.40;90.10;;;;;;5094113;28;20066;-62
2022/06/16 00:42:24;;;;;;;6.47;4.05;;;21.30;90.40;;;;;;5093958;28;20024;-63
2022/06/16 00:44:51;;;;;;;5.55;3.90;;;21.30;90.60;;;;;;5093899;28;20070;-64
2022/06/16 00:47:19;;;;;;;7.25;3.70;;;21.20;90.70;;;;;;5093861;28;20012;-63
2022/06/16 00:49:46;;;;;;;6.57;4.18;;;21.20;90.90;;;;;;5093890;28;20012;-63
2022/06/16 00:52:24;;;;;;;6.40;4.15;;;21.20;91.10;;;;;;5093991;28;20024;-63
2022/06/16 00:54:59;;;;;;;4.55;3.55;;;21.20;91.30;;;;;;5094065;28;20028;-63
2022/06/16 00:57:31;;;;;;;6.40;3.92;;;21.20;91.60;;;;;;5093781;28;20537;-63
2022/06/16 00:59:58;;;;;;;4.35;3.55;;;21.20;91.60;;;;;;5095790;28;20031;-63
2022/06/16 01:02:27;;;;;;;5.75;4.00;;;21.10;91.40;;;;;;5094584;28;20024;-63
2022/06/16 01:04:52;;;;;;;6.05;4.93;;;21.20;91.80;;;;;;5094303;28;20463;-63
2022/06/16 01:07:31;;;;;;;6.80;4.50;;;21.20;91.80;;;;;;5093344;28;20036;-62
2022/06/16 01:09:58;;;;;;;5.93;3.70;;;21.20;92.20;;;;;;5093414;28;20035;-62
2022/06/16 01:16:15;;;;;;;5.43;4.55;;;21.10;92.80;;;;;;5031154;28;20516;-62
2022/06/16 01:19:03;;;;;;;6.25;4.00;;;21.10;93.20;;;;;;5031449;28;20150;-62
2022/06/16 01:21:44;;;;;;;9.27;3.60;;;21.00;93.70;;;;;;5031098;28;20417;-62
2022/06/16 01:24:25;;;;;;;5.43;4.15;;;20.90;94.10;;;;;;5030774;28;20041;-62
2022/06/16 01:27:05;;;;;;;4.78;3.70;;;21.00;94.30;;;;;;5014932;28;20017;-58
2022/06/16 01:29:48;;;;;;;5.43;3.88;;;20.90;94.70;;;;;;5031308;28;20037;-59
2022/06/16 01:32:25;;;;;;;4.40;3.78;;;20.80;95.50;;;;;;5031145;28;20463;-60
2022/06/16 01:35:09;;;;;;;7.35;4.13;;;20.70;95.90;;;;;;5030898;28;20096;-60
2022/06/16 01:37:59;;;;;;;7.25;4.22;;;20.70;96.00;;;;;;5030916;28;20108;-60
2022/06/16 01:40:31;;;;;;;7.30;4.40;;;20.70;96.40;;;;;;5030618;28;20025;-60
2022/06/16 01:43:10;;;;;;;4.95;3.80;;;20.70;97.20;;;;;;5031126;28;20033;-60
2022/06/16 01:46:01;;;;;;;6.72;3.83;;;20.70;97.50;;;;;;5030979;28;20403;-58
2022/06/16 01:48:29;;;;;;;7.43;4.20;;;20.70;98.10;;;;;;5037580;28;20048;-59
2022/06/16 01:51:09;;;;;;;5.35;4.25;;;20.60;98.40;;;;;;5092569;28;20021;-61
2022/06/16 01:53:44;;;;;;;7.45;4.00;;;20.60;98.90;;;;;;5092344;28;20095;-60
2022/06/16 01:56:32;;;;;;;5.55;4.10;;;20.70;98.70;;;;;;5093052;28;20101;-60
2022/06/16 01:59:05;;;;;;;6.57;3.90;;;20.60;98.80;;;;;;5074329;28;20021;-60
2022/06/16 02:01:39;;;;;;;6.00;3.75;;;20.70;98.80;;;;;;5092141;28;20545;-58
2022/06/16 02:04:15;;;;;;;7.28;4.20;;;20.60;98.30;;;;;;5091992;28;20032;-60
2022/06/16 02:06:43;;;;;;;7.20;4.00;;;20.60;98.50;;;;;;5092820;28;20034;-60
2022/06/16 02:09:16;;;;;;;7.97;4.18;;;20.60;98.80;;;;;;5092673;28;20095;-61
2022/06/16 02:11:44;;;;;;;6.43;4.38;;;20.50;99.10;;;;;;5091835;28;20210;-59
2022/06/16 02:14:32;;;;;;;5.43;4.38;;;20.50;99.00;;;;;;5092738;28;20441;-60
2022/06/16 02:16:59;;;;;;;5.78;4.07;;;20.50;99.00;;;;;;5074819;28;20047;-60
2022/06/16 02:19:25;;;;;;;4.38;3.60;;;20.50;99.20;;;;;;5092880;28;20020;-60
2022/06/16 02:21:52;;;;;;;6.18;4.28;;;20.50;99.00;;;;;;5092727;28;20020;-59
2022/06/16 02:24:22;;;;;;;9.45;4.22;;;20.50;99.30;;;;;;5092652;28;20093;-61
2022/06/16 02:26:49;;;;;;;5.57;4.38;;;20.40;99.50;;;;;;5092987;28;20023;-59
2022/06/16 02:29:29;;;;;;;7.53;4.25;;;20.50;99.90;;;;;;5092957;28;20073;-60
2022/06/16 02:32:29;;;;;;;5.97;4.15;;;20.40;99.90;;;;;;5093335;28;20112;-60
2022/06/16 02:35:13;;;;;;;11.07;4.88;;;20.40;99.90;;;;;;5093024;28;20099;-60
2022/06/16 02:38:03;;;;;;;8.38;5.35;;;20.30;99.90;;;;;;5096593;28;20032;-60
2022/06/16 02:40:57;;;;;;;6.90;4.53;;;20.30;99.90;;;;;;5096724;28;20034;-60
2022/06/16 02:43:28;;;;;;;6.90;4.90;;;20.20;99.90;;;;;;5098151;28;20030;-60
2022/06/16 02:46:21;;;;;;;10.65;4.90;;;20.10;99.90;;;;;;5096993;28;20020;-61
2022/06/16 02:49:02;;;;;;;6.35;4.47;;;20.10;99.90;;;;;;5096981;28;20020;-60
2022/06/16 02:51:43;;;;;;;6.72;4.88;;;20.00;99.90;;;;;;5096664;28;20051;-60
2022/06/16 02:54:22;;;;;;;11.63;4.68;;;20.00;99.90;;;;;;5077789;28;20032;-62
2022/06/16 02:57:07;;;;;;;8.85;4.90;;;20.00;99.90;;;;;;5096129;28;20020;-59
2022/06/16 02:59:42;;;;;;;5.70;4.53;;;20.00;99.90;;;;;;5095803;28;20133;-61
2022/06/16 03:02:11;;;;;;;5.00;3.75;;;20.10;99.90;;;;;;5095581;28;20073;-59
2022/06/16 03:04:40;;;;;;;6.97;4.47;;;19.90;99.90;;;;;;5095175;28;20035;-62
2022/06/16 03:07:09;;;;;;;8.68;5.28;;;19.80;99.90;;;;;;5095074;28;20039;-62
2022/06/16 03:09:37;;;;;;;6.07;3.75;;;19.80;99.90;;;;;;5095836;28;20024;-60
2022/06/16 03:12:03;;;;;;;7.57;4.20;;;19.70;99.90;;;;;;5077504;28;20027;-60
2022/06/16 03:14:28;;;;;;;;;;;19.60;99.90;;;;;;5096125;28;20020;-60
2022/06/16 03:16:54;;;;;;;6.50;4.18;;;19.50;99.90;;;;;;5096188;28;19912;-60
2022/06/16 03:19:22;;;;;;;11.82;4.40;;;19.50;99.90;;;;;;5095665;28;20427;-60
2022/06/16 03:21:47;;;;;;;4.93;4.00;;;19.50;99.90;;;;;;5077431;28;20078;-60
2022/06/16 03:24:13;;;;;;;6.55;4.10;;;19.60;99.90;;;;;;5095676;28;20073;-60
2022/06/16 03:26:38;;;;;;;8.13;4.68;;;19.60;99.90;;;;;;5095295;28;20020;-60
2022/06/16 03:29:04;;;;;;;4.90;4.25;;;19.70;99.90;;;;;;5095308;28;20466;-59
2022/06/16 03:31:30;;;;;;;5.50;4.30;;;19.90;99.90;;;;;;5095582;28;20043;-60
2022/06/16 03:33:56;;;;;;;8.02;4.40;;;19.90;99.90;;;;;;5095240;28;20016;-60
2022/06/16 03:36:21;;;;;;;6.75;4.70;;;19.90;99.90;;;;;;5095378;28;20073;-60
2022/06/16 03:38:47;;;;;;;6.90;4.63;;;19.90;99.90;;;;;;5095050;28;20393;-59
2022/06/16 03:41:12;;;;;;;7.35;4.10;;;20.20;99.80;;;;;;5095127;28;20032;-62
2022/06/16 03:43:39;;;;;;;6.55;3.72;;;20.20;99.30;;;;;;5095069;28;20028;-59
2022/06/16 03:46:05;;;;;;;5.03;4.00;;;20.10;99.10;;;;;;5076702;28;20040;-60
2022/06/16 03:48:31;;;;;;;6.63;3.97;;;20.00;98.70;;;;;;5094000;28;20067;-60
2022/06/16 03:50:57;;;;;;;8.48;3.80;;;19.90;99.10;;;;;;5094974;28;20036;-62
2022/06/16 03:53:22;;;;;;;5.38;3.88;;;19.90;99.10;;;;;;5094910;28;20023;-60
2022/06/16 03:55:48;;;;;;;4.32;3.75;;;19.80;99.20;;;;;;5094995;28;20028;-59
2022/06/16 03:58:14;;;;;;;4.95;3.63;;;19.70;99.70;;;;;;5094676;28;20046;-60
2022/06/16 04:00:40;;;;;;;6.03;4.30;;;19.80;99.60;;;;;;5094794;28;20075;-60
2022/06/16 04:05:51;;;;;;;5.78;4.28;;;20.00;99.60;;;;;;5094630;28;20093;-60
2022/06/16 04:08:19;;;;;;;4.20;3.60;;;19.80;99.90;;;;;;5094575;28;20028;-60
2022/06/16 04:10:46;;;;;;;8.93;4.20;;;19.70;99.90;;;;;;5094414;28;20107;-60
2022/06/16 04:13:11;;;;;;;;;;;19.70;99.90;;;;;;5076595;28;20024;-59
2022/06/16 04:15:37;;;;;;;5.88;3.65;;;19.60;99.90;;;;;;5094264;28;19910;-60
2022/06/16 04:18:03;;;;;;;4.88;3.85;;;19.60;99.90;;;;;;5094367;28;20059;-59
2022/06/16 04:20:29;;;;;;;5.15;4.10;;;19.60;99.90;;;;;;5095390;28;20040;-60
2022/06/16 04:22:54;;;;;;;6.40;4.18;;;19.50;99.90;;;;;;5094916;28;20052;-60
2022/06/16 04:25:22;;;;;;;4.65;3.78;;;19.50;99.90;;;;;;5094764;28;20393;-58
2022/06/16 04:27:48;;;;;;;5.07;3.92;;;19.50;99.90;;;;;;5076298;28;20031;-60
2022/06/16 04:30:16;;;;;;;5.15;3.70;;;19.50;99.90;;;;;;5094368;28;20028;-60
2022/06/16 04:32:41;;;;;;;5.07;3.80;;;19.50;99.90;;;;;;5094154;28;20024;-58
2022/06/16 04:35:07;;;;;;;5.35;3.60;;;19.40;99.90;;;;;;5093856;28;20438;-59
2022/06/16 04:37:33;;;;;;;6.80;4.10;;;19.40;99.90;;;;;;5094029;28;20481;-60
2022/06/16 04:39:59;;;;;;;6.25;3.88;;;19.40;99.90;;;;;;5094015;28;20050;-61
2022/06/16 04:42:24;;;;;;;6.50;3.50;;;19.50;99.90;;;;;;5093579;28;20498;-61
2022/06/16 04:44:50;;;;;;;6.45;3.70;;;19.50;99.90;;;;;;5093729;28;20036;-61
2022/06/16 04:47:16;;;;;;;5.65;3.38;;;19.50;99.90;;;;;;5093914;28;20020;-60
2022/06/16 04:49:43;;;;;;;6.78;3.20;;;19.50;99.90;;;;;;5093820;28;20024;-60
2022/06/16 04:52:09;;;;;;;4.53;3.70;;;19.50;99.90;;;;;;5093906;28;20512;-61
2022/06/16 04:54:35;;;;;;;7.00;4.35;;;19.50;99.90;;;;;;5075607;28;20374;-61
2022/06/16 04:57:01;;;;;;;7.45;3.97;;;19.60;99.90;;;;;;5093785;28;20031;-61
2022/06/16 04:59:26;;;;;;;5.28;3.72;;;19.80;99.80;;;;;;5094003;28;20024;-61
2022/06/16 05:01:54;;;;;;;4.28;3.30;;;19.90;99.50;;;;;;5094915;28;20031;-61
2022/06/16 05:04:19;;;;;;;6.20;3.50;;;20.00;99.30;;;;;;5097591;28;20031;-60
2022/06/16 05:06:45;;;;;;;5.25;3.35;;;20.10;98.90;;;;;;5097463;28;20028;-62
2022/06/16 05:09:10;;;;;;;5.90;3.20;;;20.20;98.80;;;;;;5096854;28;20027;-61
2022/06/16 05:11:36;;;;;;;7.72;3.88;;;20.30;98.60;;;;;;5094706;28;20020;-60
2022/06/16 05:14:02;;;;;;;6.35;3.58;;;20.40;98.30;;;;;;5094840;28;20036;-60
2022/06/16 05:16:28;;;;;;;5.68;3.70;;;20.50;98.10;;;;;;5094126;28;20390;-60
2022/06/16 05:18:54;;;;;;;;;;;20.80;98.10;;;;;;5095197;28;20082;-60
2022/06/16 05:21:19;;;;;;;3.97;3.25;;;20.80;97.50;;;;;;5094509;28;19904;-60
2022/06/16 05:23:45;;;;;;;5.65;3.70;;;20.70;97.40;;;;;;5076069;28;20059;-61
2022/06/16 05:26:12;;;;;;;4.97;3.60;;;20.70;97.50;;;;;;5094689;28;20461;-60
2022/06/16 05:28:38;;;;;;;6.15;3.30;;;20.80;97.90;;;;;;5093669;28;20384;-61
2022/06/16 05:31:04;;;;;;;;;;;20.70;98.00;;;;;;5093757;28;20507;-60
2022/06/16 05:33:29;;;;;;;5.13;3.28;;;20.70;98.30;;;;;;5093404;28;19904;-59
2022/06/16 05:36:10;;;;;;;7.50;4.28;;;20.70;98.30;;;;;;5093737;28;20031;-59
2022/06/16 05:38:36;;;;;;;4.53;3.35;;;21.00;98.10;;;;;;5093799;28;20039;-60
2022/06/16 05:41:12;;;;;;;9.63;4.18;;;21.00;98.10;;;;;;5093300;28;20028;-60
2022/06/16 05:43:37;;;;;;;7.77;3.77;;;20.90;98.30;;;;;;5093422;28;20024;-61
2022/06/16 05:46:05;;;;;;;4.30;3.90;;;20.80;98.30;;;;;;5092743;28;20826;-60
2022/06/16 05:48:31;;;;;;;4.82;3.70;;;20.70;98.50;;;;;;5093164;28;20107;-60
2022/06/16 05:51:04;;;;;;;4.47;3.30;;;20.60;98.80;;;;;;5092929;28;20031;-59
2022/06/16 05:53:29;;;;;;;5.95;3.50;;;20.60;98.90;;;;;;5093041;28;20106;-61
2022/06/16 05:55:55;;;;;;;4.95;3.80;;;20.60;99.00;;;;;;5092804;28;20020;-60
2022/06/16 05:58:20;;;;;;;5.60;3.97;;;20.70;99.00;;;;;;5093153;28;20421;-60
2022/06/16 06:00:46;;;;;;;8.52;3.63;;;20.80;98.70;;;;;;5092862;28;20024;-61
2022/06/16 06:03:12;;;;;;;5.97;3.80;;;20.80;98.70;;;;;;5093132;28;20032;-61
2022/06/16 06:05:38;;;;;;;7.10;3.47;;;20.90;98.60;;;;;;5074600;28;20040;-61
2022/06/16 06:16:26;;;;;;;5.00;3.08;;;21.60;97.50;;;;;;5096676;28;20030;-60
2022/06/16 06:18:56;;;;;;;5.57;3.20;;;21.90;97.10;;;;;;5096708;28;20035;-59
2022/06/16 06:24:10;;;;;;;6.70;3.17;;;22.40;95.60;;;;;;5097159;28;20192;-61
2022/06/16 06:26:36;;;;;;;6.47;3.30;;;22.50;94.90;;;;;;5096672;28;20119;-61
2022/06/16 06:29:04;;;;;;;5.50;3.13;;;22.50;94.90;;;;;;5096438;28;20017;-61
2022/06/16 06:31:30;;;;;;;8.65;2.80;;;22.60;94.40;;;;;;5096873;28;20017;-60
2022/06/16 06:33:55;;;;;;;4.25;3.10;;;22.80;94.30;;;;;;5097009;28;20490;-61
2022/06/16 06:36:21;;;;;;;5.10;3.08;;;22.90;94.00;;;;;;5096785;28;20066;-62
2022/06/16 06:38:46;;;;;;;;;;;22.90;93.90;;;;;;5097868;28;20020;-63
2022/06/16 06:41:12;;;;;;;5.45;2.90;;;23.10;93.60;;;;;;5079062;28;19911;-61
2022/06/16 06:43:37;;;;;;;6.25;2.58;;;23.10;93.70;;;;;;5097435;28;20016;-60
2022/06/16 06:46:03;;;;;;;5.70;3.28;;;23.30;93.40;;;;;;5096432;28;20081;-60
2022/06/16 06:48:29;;;;;;;;;;;23.40;93.30;;;;;;5079345;28;20050;-61
2022/06/16 06:50:54;;;;;;;8.65;3.30;;;23.40;93.00;;;;;;5096981;28;19904;-61
2022/06/16 06:53:20;;;;;;;;;;;23.40;92.70;;;;;;5096748;28;20020;-61
2022/06/16 06:55:47;;;;;;;6.63;3.00;;;23.30;92.60;;;;;;5078564;28;19903;-61
2022/06/16 06:58:18;;;;;;;4.07;2.88;;;23.40;92.60;;;;;;5096967;28;20115;-62
2022/06/16 07:00:44;;;;;;;6.25;2.95;;;23.60;92.00;;;;;;5096542;28;20445;-61
2022/06/16 07:03:10;;;;;;;;;;;23.50;92.10;;;;;;5097406;28;20031;-61
2022/06/16 07:05:36;;;;;;;5.03;3.00;;;23.40;92.10;;;;;;5096961;28;19920;-60
2022/06/16 07:08:01;;;;;;;;;;;23.60;92.00;;;;;;5098973;28;20059;-61
2022/06/16 07:10:27;;;;;;;6.40;2.65;;;23.70;92.00;;;;;;5078831;28;19904;-61
2022/06/16 07:12:53;;;;;;;;;;;23.70;91.90;;;;;;5097083;28;20028;-61
2022/06/16 07:15:18;;;;;;;5.30;3.30;;;23.60;91.90;;;;;;5095913;28;19904;-60
2022/06/16 07:17:44;;;;;;;;;;;23.70;92.00;;;;;;5096510;28;20047;-61
2022/06/16 07:20:13;;;;;;;7.85;2.88;;;23.80;91.70;;;;;;5095555;28;19908;-62
2022/06/16 07:22:38;;;;;;;4.93;2.75;;;23.90;91.70;;;;;;5096155;28;20034;-62
2022/06/16 07:25:04;;;;;;;;;;;24.00;91.50;;;;;;5096111;28;20032;-62
2022/06/16 07:27:30;;;;;;;4.53;2.55;;;24.00;91.60;;;;;;5125056;22;19927;-64
2022/06/16 07:29:56;;;;;;;;;;;24.00;91.60;;;;;;5116400;28;20012;-65
2022/06/16 07:32:22;;;;;;;5.55;2.85;;;23.90;91.50;;;;;;5116282;28;20326;-66
2022/06/16 07:34:48;;;;;;;;;;;23.80;91.60;;;;;;5116635;28;20515;-66
2022/06/16 07:37:14;;;;;;;5.03;2.88;;;23.90;91.70;;;;;;5115935;28;19996;-66
2022/06/16 07:39:40;;;;;;;;;;;23.90;91.70;;;;;;5114666;28;20103;-66
2022/06/16 07:42:08;;;;;;;8.13;2.88;;;24.00;91.70;;;;;;5115717;28;19907;-65
2022/06/16 07:44:34;;;;;;;6.20;3.45;;;24.40;90.80;;;;;;5115804;28;20032;-65
2022/06/16 07:46:59;;;;;;;;;;;25.40;89.80;;;;;;5114776;28;20030;-65
2022/06/16 07:49:27;;;;;;;4.85;2.55;;;26.90;86.90;;;;;;5115581;28;19908;-65
2022/06/16 07:51:54;;;;;;;4.75;2.50;;;28.20;83.60;;;;;;5114115;28;20107;-65
2022/06/16 07:54:20;;;;;;;4.38;2.50;;;29.60;78.90;;;;;;5115795;28;20034;-65
2022/06/16 07:56:47;;;;;;;5.72;2.47;;;29.40;78.30;;;;;;5115533;28;20015;-64
2022/06/16 07:59:13;;;;;;;4.03;2.80;;;29.00;77.60;;;;;;5115159;28;20506;-66
2022/06/16 08:01:39;;;;;;;6.00;2.65;;;28.70;78.10;;;;;;5116038;28;20476;-67
2022/06/16 08:04:05;;;;;;;4.65;2.28;;;28.60;77.80;;;;;;5114263;28;20035;-67
2022/06/16 08:06:33;;;;;;;3.97;2.60;;;28.90;78.00;;;;;;5115462;28;20027;-67
2022/06/16 08:08:59;;;;;;;7.40;3.05;;;29.90;76.10;;;;;;5115841;28;20027;-67
2022/06/16 08:14:09;;;;;;;7.22;2.70;;;33.40;70.30;;;;;;5116950;28;20399;-66
2022/06/16 08:16:35;;;;;;;3.60;2.38;;;35.30;65.40;;;;;;5116578;28;20020;-66
2022/06/16 08:19:01;;;;;;;5.07;2.70;;;36.40;61.70;;;;;;5116831;28;20030;-66
2022/06/16 08:21:27;;;;;;;3.17;2.03;;;37.20;59.00;;;;;;5116471;28;20027;-66
2022/06/16 08:23:53;;;;;;;3.03;2.45;;;38.00;57.50;;;;;;5115459;28;20035;-66
2022/06/16 08:26:18;;;;;;;7.00;2.33;;;39.00;55.60;;;;;;5115681;28;20031;-66
2022/06/16 08:28:44;;;;;;;4.30;2.45;;;39.50;53.60;;;;;;5115167;28;20036;-66
2022/06/16 08:31:10;;;;;;;5.13;2.33;;;40.50;53.40;;;;;;5116250;28;20031;-66
2022/06/16 08:33:36;;;;;;;5.78;2.60;;;40.20;52.10;;;;;;5113315;28;20479;-66
2022/06/16 08:36:02;;;;;;;3.00;2.00;;;39.80;51.20;;;;;;5115184;28;20027;-66
2022/06/16 08:38:27;;;;;;;4.50;2.17;;;39.80;51.70;;;;;;5115715;28;20077;-66
2022/06/16 08:41:11;;;;;;;6.88;2.60;;;40.00;51.40;;;;;;5114914;28;20016;-66
2022/06/16 08:43:50;;;;;;;4.10;2.53;;;39.70;51.30;;;;;;5113439;28;20472;-66
2022/06/16 08:46:18;;;;;;;3.97;2.90;;;39.80;50.90;;;;;;5113507;28;20093;-66
2022/06/16 08:48:58;;;;;;;6.10;2.90;;;40.60;50.50;;;;;;5114749;28;20103;-66
2022/06/16 08:51:43;;;;;;;6.03;2.78;;;41.00;49.80;;;;;;5115318;28;20016;-66
2022/06/16 08:54:27;;;;;;;4.95;2.92;;;41.90;49.40;;;;;;5113421;28;20027;-67
2022/06/16 08:57:09;;;;;;;3.42;2.55;;;42.40;48.70;;;;;;5114915;28;20049;-66
2022/06/16 08:59:52;;;;;;;4.32;2.63;;;42.90;47.70;;;;;;5115164;28;20035;-66
2022/06/16 09:02:52;;;;;;;5.97;2.63;;;43.00;47.10;;;;;;5114413;28;20453;-66
2022/06/16 09:05:38;;;;;;;7.18;3.00;;;42.10;47.00;;;;;;5096839;28;20437;-67
2022/06/16 09:08:12;;;;;;;4.70;2.58;;;42.70;47.10;;;;;;5113575;28;20392;-66
2022/06/16 09:10:37;;;;;;;6.35;2.38;;;42.30;46.70;;;;;;5113874;28;20496;-66
2022/06/16 09:13:14;;;;;;;2.28;2.03;;;41.70;47.40;;;;;;5115224;28;20031;-66
2022/06/16 09:16:01;;;;;;;4.78;2.33;;;41.90;45.90;;;;;;5114439;28;20023;-66
2022/06/16 09:18:58;;;;;;;4.50;2.25;;;40.50;46.50;;;;;;5114686;28;20020;-66
2022/06/16 09:21:34;;;;;;;4.00;2.22;;;40.60;46.70;;;;;;5115370;28;20410;-66
2022/06/16 09:24:18;;;;;;;5.03;2.20;;;40.00;47.10;;;;;;5117456;28;20024;-67
2022/06/16 09:27:22;;;;;;;3.90;2.35;;;40.00;47.00;;;;;;5118097;28;20045;-67
2022/06/16 09:29:57;;;;;;;5.18;2.25;;;39.80;47.60;;;;;;5098866;28;20031;-65
2022/06/16 09:32:25;;;;;;;2.75;2.00;;;39.10;47.70;;;;;;5117141;28;20540;-66
2022/06/16 09:34:54;;;;;;;7.47;2.85;;;39.20;47.80;;;;;;5116940;28;20477;-67
2022/06/16 09:37:32;;;;;;;5.05;2.10;;;39.10;47.80;;;;;;5117150;28;20487;-67
2022/06/16 09:40:08;;;;;;;3.75;2.35;;;38.10;48.50;;;;;;5117002;28;20027;-66
2022/06/16 09:42:44;;;;;;;3.65;2.50;;;38.70;48.30;;;;;;5115608;28;20031;-67
2022/06/16 09:45:53;;;;;;;5.57;2.67;;;39.40;48.10;;;;;;5115639;28;20384;-67
2022/06/16 09:48:31;;;;;;;5.53;2.70;;;40.20;48.00;;;;;;5096463;28;20523;-67
2022/06/16 09:51:05;;;;;;;10.30;6.55;;;40.10;46.50;;;;;;5097334;28;20036;-67
2022/06/16 09:54:02;;;;;;;11.70;5.03;;;40.40;46.50;;;;;;5097833;28;20028;-67
2022/06/16 09:57:02;;;;;;;6.18;3.20;;;40.80;46.70;;;;;;5067586;28;20082;-67
2022/06/16 09:59:33;;;;;;;3.58;1.88;;;41.30;46.10;;;;;;5077104;28;20028;-65
2022/06/16 10:02:05;;;;;;;3.13;2.00;;;40.80;45.60;;;;;;5097279;28;20031;-67
2022/06/16 10:04:32;;;;;;;9.52;2.58;;;40.20;45.80;;;;;;5080278;28;20039;-66
2022/06/16 10:07:26;;;;;;;3.95;2.35;;;40.30;47.00;;;;;;5096502;28;20024;-66
2022/06/16 10:10:05;;;;;;;3.63;2.25;;;40.80;46.60;;;;;;5083840;28;20111;-66
2022/06/16 10:12:48;;;;;;;4.72;2.22;;;41.80;45.70;;;;;;5079252;28;20023;-66
2022/06/16 10:15:35;;;;;;;2.47;1.90;;;41.60;45.70;;;;;;5096269;28;20028;-66
2022/06/16 10:18:03;;;;;;;3.28;2.05;;;42.20;45.60;;;;;;5095632;28;20036;-66
2022/06/16 10:20:29;;;;;;;6.20;2.53;;;42.00;45.90;;;;;;5095041;28;20153;-66
2022/06/16 10:23:21;;;;;;;6.28;1.95;;;41.10;46.30;;;;;;5080514;28;20028;-66
2022/06/16 10:25:54;;;;;;;4.10;2.25;;;40.50;46.60;;;;;;5111125;28;20491;-66
2022/06/16 10:28:59;;;;;;;3.40;2.10;;;40.70;46.30;;;;;;5119431;28;20039;-67
2022/06/16 10:31:46;;;;;;;6.18;2.13;;;41.50;45.50;;;;;;5121137;28;20039;-69
2022/06/16 10:34:17;;;;;;;4.75;1.80;;;41.60;44.90;;;;;;5121995;28;20034;-70
2022/06/16 10:36:55;;;;;;;5.80;2.20;;;40.60;44.70;;;;;;5120939;28;20027;-66
2022/06/16 10:39:24;;;;;;;3.22;2.20;;;39.80;45.60;;;;;;5117525;28;20023;-65
2022/06/16 10:42:04;;;;;;;4.60;1.70;;;40.40;45.90;;;;;;5115771;28;20027;-66
2022/06/16 10:44:31;;;;;;;5.05;2.20;;;41.20;45.70;;;;;;5116121;28;20023;-69
2022/06/16 10:47:00;;;;;;;4.88;3.08;;;41.00;45.00;;;;;;5115692;28;20020;-66
2022/06/16 10:49:30;;;;;;;6.93;2.50;;;41.20;45.20;;;;;;5115663;28;20024;-66
2022/06/16 10:52:01;;;;;;;11.65;3.42;;;41.10;45.20;;;;;;5116742;28;20112;-66
2022/06/16 10:54:37;;;;;;;5.13;2.33;;;41.60;44.90;;;;;;5116535;28;20027;-66
2022/06/16 10:57:12;;;;;;;2.90;2.17;;;41.50;44.80;;;;;;5116341;28;20026;-66
2022/06/16 10:59:41;;;;;;;;;;;41.90;45.20;;;;;;5117225;28;20020;-66
2022/06/16 11:02:28;;;;;;;4.13;2.08;;;42.00;44.80;;;;;;5116721;28;20283;-66
2022/06/16 11:05:01;;;;;;;5.95;2.45;;;41.70;44.60;;;;;;5117218;28;20083;-65
2022/06/16 11:07:36;;;;;;;4.25;2.28;;;40.50;45.30;;;;;;5116570;28;20019;-66
2022/06/16 11:10:28;;;;;;;3.25;2.22;;;40.50;45.30;;;;;;5116942;28;20019;-66
2022/06/16 11:12:54;;;;;;;3.05;2.10;;;39.70;45.80;;;;;;5116659;28;20027;-65
2022/06/16 11:15:32;;;;;;;4.45;2.33;;;38.40;46.60;;;;;;5116261;28;20119;-65
2022/06/16 11:18:01;;;;;;;2.47;2.25;;;36.60;48.00;;;;;;5117053;28;20053;-66
2022/06/16 11:20:43;;;;;;;3.97;2.20;;;35.50;49.60;;;;;;5116212;28;20019;-65
2022/06/16 11:23:29;;;;;;;5.68;3.08;;;34.30;50.80;;;;;;5114825;28;20023;-66
2022/06/16 11:26:17;;;;;;;7.97;2.45;;;33.20;52.10;;;;;;5115807;28;20361;-66
2022/06/16 11:28:49;;;;;;;3.80;2.40;;;32.70;52.60;;;;;;5114595;28;20112;-66
2022/06/16 11:31:22;;;;;;;4.88;2.30;;;32.40;52.60;;;;;;5116099;28;20107;-66
2022/06/16 11:34:07;;;;;;;8.25;2.78;;;32.00;52.60;;;;;;5113644;28;20019;-67
2022/06/16 11:37:06;;;;;;;4.22;2.50;;;31.80;53.30;;;;;;5115905;28;20070;-66
2022/06/16 11:40:00;;;;;;;5.70;2.58;;;31.50;54.10;;;;;;5116058;28;20486;-66
2022/06/16 11:42:31;;;;;;;3.40;2.30;;;31.30;54.70;;;;;;5114509;28;20043;-66
2022/06/16 11:45:09;;;;;;;7.28;2.60;;;31.20;54.50;;;;;;5115777;28;20475;-66
2022/06/16 11:47:50;;;;;;;5.22;2.58;;;31.10;55.00;;;;;;5115632;28;20054;-66
2022/06/16 11:50:24;;;;;;;5.45;2.50;;;31.00;55.50;;;;;;5114449;28;20534;-65
2022/06/16 11:52:53;;;;;;;7.43;2.80;;;31.00;55.70;;;;;;5115518;28;20023;-66
2022/06/16 11:55:31;;;;;;;3.35;2.40;;;30.90;55.20;;;;;;5115716;28;20364;-65
2022/06/16 11:58:23;;;;;;;3.88;2.42;;;30.80;55.70;;;;;;5114229;28;20031;-66
2022/06/16 12:01:06;;;;;;;4.70;2.67;;;30.70;55.50;;;;;;5114225;28;20482;-65
2022/06/16 12:03:37;;;;;;;7.68;2.70;;;30.70;55.90;;;;;;5115854;28;20024;-66
2022/06/16 12:06:15;;;;;;;4.43;2.30;;;30.40;55.90;;;;;;5115139;28;20030;-64
2022/06/16 12:08:50;;;;;;;4.82;2.10;;;30.40;56.00;;;;;;5113852;28;20028;-65
2022/06/16 12:11:28;;;;;;;5.13;2.80;;;30.20;55.90;;;;;;5114895;28;20038;-65
2022/06/16 12:14:30;;;;;;;8.23;2.90;;;30.10;56.30;;;;;;5116127;28;20016;-66
2022/06/16 12:17:04;;;;;;;3.45;2.50;;;30.00;56.50;;;;;;5115517;28;20542;-66
2022/06/16 12:19:54;;;;;;;2.50;2.20;;;29.90;56.50;;;;;;5115421;28;20062;-66
2022/06/16 12:22:28;;;;;;;3.53;2.83;;;29.90;56.80;;;;;;5115778;28;20030;-66
2022/06/16 12:25:06;;;;;;;6.22;2.78;;;30.00;57.40;;;;;;5115462;28;20115;-65
2022/06/16 12:27:51;;;;;;;5.03;2.72;;;30.20;57.50;;;;;;5115294;28;20434;-66
2022/06/16 12:30:23;;;;;;;7.82;2.80;;;30.50;57.60;;;;;;5115009;28;20011;-66
2022/06/16 12:32:52;;;;;;;5.65;2.55;;;30.70;56.60;;;;;;5114940;28;20460;-66
2022/06/16 12:35:29;;;;;;;4.93;3.45;;;30.80;56.40;;;;;;5113147;28;20118;-66
2022/06/16 12:38:02;;;;;;;4.15;2.70;;;30.70;56.60;;;;;;5114290;28;20541;-65
2022/06/16 12:40:34;;;;;;;4.10;2.95;;;30.50;56.80;;;;;;5114388;28;20047;-66
2022/06/16 12:43:06;;;;;;;5.53;2.70;;;30.60;56.00;;;;;;5115002;28;20024;-66
2022/06/16 12:45:38;;;;;;;8.10;2.63;;;30.60;56.90;;;;;;5113093;28;20028;-66
2022/06/16 12:48:18;;;;;;;6.15;2.42;;;30.80;56.60;;;;;;5114339;28;20016;-66
2022/06/16 12:50:51;;;;;;;6.22;3.10;;;30.90;56.10;;;;;;5114435;28;20016;-65
2022/06/16 12:53:39;;;;;;;4.10;2.50;;;31.00;56.30;;;;;;5114595;28;20056;-66
2022/06/16 12:56:08;;;;;;;5.68;2.40;;;31.10;56.00;;;;;;5114515;28;20024;-67
2022/06/16 12:58:44;;;;;;;3.10;2.60;;;31.10;56.10;;;;;;5114372;28;20012;-65
2022/06/16 13:01:13;;;;;;;5.70;2.90;;;31.20;55.60;;;;;;5114551;28;20126;-66
2022/06/16 13:03:58;;;;;;;4.00;2.72;;;31.00;55.40;;;;;;5114946;28;20020;-66
2022/06/16 13:06:25;;;;;;;53.92;33.42;;;31.00;56.00;;;;;;5114660;28;20024;-65
2022/06/16 13:08:56;;;;;;;16.65;11.50;;;31.10;57.60;;;;;;5114805;28;20372;-65
2022/06/16 13:11:29;;;;;;;14.30;9.82;;;31.00;56.10;;;;;;5112947;28;20111;-66
2022/06/16 13:14:03;;;;;;;6.90;3.08;;;31.00;56.30;;;;;;5112920;28;20062;-67
2022/06/16 13:16:31;;;;;;;9.73;2.88;;;31.00;56.10;;;;;;5114599;28;20088;-65
2022/06/16 13:19:06;;;;;;;5.18;2.50;;;30.80;55.80;;;;;;5113887;28;20046;-67
2022/06/16 13:21:48;;;;;;;3.63;2.60;;;30.90;56.10;;;;;;5114073;28;20397;-67
2022/06/16 13:24:34;;;;;;;4.72;2.58;;;30.90;56.20;;;;;;5113931;28;20479;-66
2022/06/16 13:27:09;;;;;;;4.18;2.83;;;31.00;56.10;;;;;;5113624;28;20398;-66
2022/06/16 13:29:57;;;;;;;4.83;2.60;;;30.90;56.50;;;;;;5113737;28;20016;-66
2022/06/16 13:32:59;;;;;;;4.57;2.10;;;31.00;56.60;;;;;;5114725;28;20166;-66
2022/06/16 13:35:46;;;;;;;5.15;2.72;;;31.00;56.00;;;;;;5115041;28;20034;-65
2022/06/16 13:38:11;;;;;;;4.88;2.70;;;31.00;56.00;;;;;;5114978;28;20476;-67